sensor_id;sensor_type;location;lat;lon;timestamp;P1;durP1;ratioP1;P2;durP2;ratioP2
62268;SDS011;56517;51.634;5.566;2023-02-15T00:00:19;50.25;;;26.83;;
62268;SDS011;56517;51.634;5.566;2023-02-15T00:47:52;46.78;;;24.83;;
62268;SDS011;56517;51.634;5.566;2023-02-15T00:52:53;54.10;;;27.13;;
62268;SDS011;56517;51.634;5.566;2023-02-15T00:57:54;44.08;;;23.73;;
62268;SDS011;56517;51.634;5.566;2023-02-15T01:02:54;53.67;;;26.02;;
62268;SDS011;56517;51.634;5.566;2023-02-15T01:07:55;53.22;;;24.95;;
62268;SDS011;56517;51.634;5.566;2023-02-15T01:12:56;53.47;;;26.95;;
62268;SDS011;56517;51.634;5.566;2023-02-15T01:17:57;54.38;;;26.95;;
62268;SDS011;56517;51.634;5.566;2023-02-15T01:22:57;47.42;;;24.80;;
62268;SDS011;56517;51.634;5.566;2023-02-15T01:27:58;51.15;;;25.73;;
62268;SDS011;56517;51.634;5.566;2023-02-15T01:32:58;60.58;;;27.98;;
62268;SDS011;56517;51.634;5.566;2023-02-15T01:37:59;49.75;;;25.73;;
62268;SDS011;56517;51.634;5.566;2023-02-15T01:42:59;51.22;;;24.77;;
62268;SDS011;56517;51.634;5.566;2023-02-15T01:48:04;58.65;;;27.98;;
62268;SDS011;56517;51.634;5.566;2023-02-15T01:53:10;54.78;;;25.73;;
62268;SDS011;56517;51.634;5.566;2023-02-15T01:58:13;55.33;;;24.77;;
62268;SDS011;56517;51.634;5.566;2023-02-15T02:03:14;64.47;;;27.17;;
62268;SDS011;56517;51.634;5.566;2023-02-15T02:08:15;71.05;;;24.80;;
62268;SDS011;56517;51.634;5.566;2023-02-15T02:13:15;69.28;;;22.25;;
62268;SDS011;56517;51.634;5.566;2023-02-15T02:18:35;67.82;;;25.00;;
62268;SDS011;56517;51.634;5.566;2023-02-15T02:23:39;58.85;;;25.02;;
62268;SDS011;56517;51.634;5.566;2023-02-15T02:34:33;56.75;;;24.65;;
62268;SDS011;56517;51.634;5.566;2023-02-15T02:49:08;49.72;;;23.48;;
62268;SDS011;56517;51.634;5.566;2023-02-15T02:54:08;65.05;;;27.23;;
62268;SDS011;56517;51.634;5.566;2023-02-15T02:59:16;51.85;;;26.67;;
62268;SDS011;56517;51.634;5.566;2023-02-15T03:04:18;55.88;;;25.75;;
62268;SDS011;56517;51.634;5.566;2023-02-15T03:09:31;53.67;;;25.25;;
62268;SDS011;56517;51.634;5.566;2023-02-15T03:14:34;50.15;;;23.15;;
62268;SDS011;56517;51.634;5.566;2023-02-15T03:19:35;51.55;;;26.15;;
62268;SDS011;56517;51.634;5.566;2023-02-15T03:24:41;52.72;;;26.20;;
62268;SDS011;56517;51.634;5.566;2023-02-15T03:29:45;55.38;;;27.10;;
62268;SDS011;56517;51.634;5.566;2023-02-15T03:34:46;50.63;;;25.30;;
62268;SDS011;56517;51.634;5.566;2023-02-15T03:45:09;50.83;;;26.02;;
62268;SDS011;56517;51.634;5.566;2023-02-15T03:55:15;58.53;;;28.45;;
62268;SDS011;56517;51.634;5.566;2023-02-15T04:00:17;53.95;;;25.98;;
62268;SDS011;56517;51.634;5.566;2023-02-15T04:05:17;55.47;;;23.77;;
62268;SDS011;56517;51.634;5.566;2023-02-15T04:10:18;56.05;;;26.00;;
62268;SDS011;56517;51.634;5.566;2023-02-15T04:15:19;60.75;;;26.58;;
62268;SDS011;56517;51.634;5.566;2023-02-15T04:20:19;62.05;;;26.58;;
62268;SDS011;56517;51.634;5.566;2023-02-15T04:25:20;57.97;;;28.25;;
62268;SDS011;56517;51.634;5.566;2023-02-15T04:30:21;51.65;;;25.45;;
62268;SDS011;56517;51.634;5.566;2023-02-15T04:35:22;49.72;;;23.02;;
62268;SDS011;56517;51.634;5.566;2023-02-15T04:40:23;60.35;;;26.35;;
62268;SDS011;56517;51.634;5.566;2023-02-15T04:45:23;53.55;;;25.58;;
62268;SDS011;56517;51.634;5.566;2023-02-15T04:50:24;50.92;;;25.70;;
62268;SDS011;56517;51.634;5.566;2023-02-15T04:55:24;53.03;;;24.77;;
62268;SDS011;56517;51.634;5.566;2023-02-15T05:00:25;64.05;;;26.77;;
62268;SDS011;56517;51.634;5.566;2023-02-15T05:05:26;52.05;;;24.80;;
62268;SDS011;56517;51.634;5.566;2023-02-15T05:10:26;54.85;;;25.88;;
62268;SDS011;56517;51.634;5.566;2023-02-15T05:15:27;60.60;;;26.95;;
62268;SDS011;56517;51.634;5.566;2023-02-15T05:20:27;71.57;;;30.13;;
62268;SDS011;56517;51.634;5.566;2023-02-15T05:25:28;60.47;;;28.80;;
62268;SDS011;56517;51.634;5.566;2023-02-15T05:30:28;55.92;;;25.27;;
62268;SDS011;56517;51.634;5.566;2023-02-15T05:35:29;57.25;;;27.27;;
62268;SDS011;56517;51.634;5.566;2023-02-15T05:40:29;67.68;;;28.10;;
62268;SDS011;56517;51.634;5.566;2023-02-15T05:45:30;56.78;;;25.23;;
62268;SDS011;56517;51.634;5.566;2023-02-15T05:50:30;54.60;;;25.55;;
62268;SDS011;56517;51.634;5.566;2023-02-15T05:55:31;53.65;;;26.17;;
62268;SDS011;56517;51.634;5.566;2023-02-15T06:00:32;67.60;;;29.45;;
62268;SDS011;56517;51.634;5.566;2023-02-15T06:05:32;53.80;;;25.85;;
62268;SDS011;56517;51.634;5.566;2023-02-15T06:10:33;52.25;;;23.77;;
62268;SDS011;56517;51.634;5.566;2023-02-15T06:15:33;56.75;;;24.40;;
62268;SDS011;56517;51.634;5.566;2023-02-15T06:20:34;58.83;;;29.17;;
62268;SDS011;56517;51.634;5.566;2023-02-15T06:25:34;61.80;;;28.52;;
62268;SDS011;56517;51.634;5.566;2023-02-15T06:30:35;70.57;;;29.50;;
62268;SDS011;56517;51.634;5.566;2023-02-15T06:35:35;71.90;;;29.25;;
62268;SDS011;56517;51.634;5.566;2023-02-15T06:40:36;62.75;;;27.83;;
62268;SDS011;56517;51.634;5.566;2023-02-15T06:45:36;58.28;;;26.25;;
62268;SDS011;56517;51.634;5.566;2023-02-15T06:50:37;68.28;;;28.63;;
62268;SDS011;56517;51.634;5.566;2023-02-15T06:55:38;65.70;;;28.63;;
62268;SDS011;56517;51.634;5.566;2023-02-15T07:00:38;80.38;;;32.63;;
62268;SDS011;56517;51.634;5.566;2023-02-15T07:05:39;62.08;;;26.50;;
62268;SDS011;56517;51.634;5.566;2023-02-15T07:10:42;74.15;;;28.60;;
62268;SDS011;56517;51.634;5.566;2023-02-15T07:15:43;71.00;;;29.30;;
62268;SDS011;56517;51.634;5.566;2023-02-15T07:20:44;66.70;;;28.33;;
62268;SDS011;56517;51.634;5.566;2023-02-15T07:25:44;65.32;;;30.25;;
62268;SDS011;56517;51.634;5.566;2023-02-15T07:30:45;80.38;;;31.38;;
62268;SDS011;56517;51.634;5.566;2023-02-15T07:35:46;57.08;;;26.92;;
62268;SDS011;56517;51.634;5.566;2023-02-15T07:40:47;79.18;;;32.25;;
62268;SDS011;56517;51.634;5.566;2023-02-15T07:45:47;77.20;;;31.10;;
62268;SDS011;56517;51.634;5.566;2023-02-15T07:50:48;75.82;;;31.17;;
62268;SDS011;56517;51.634;5.566;2023-02-15T08:06:16;80.45;;;35.53;;
62268;SDS011;56517;51.634;5.566;2023-02-15T08:11:18;84.55;;;33.25;;
62268;SDS011;56517;51.634;5.566;2023-02-15T08:16:25;93.45;;;35.78;;
62268;SDS011;56517;51.634;5.566;2023-02-15T08:21:27;86.18;;;34.92;;
62268;SDS011;56517;51.634;5.566;2023-02-15T08:26:28;82.65;;;32.55;;
62268;SDS011;56517;51.634;5.566;2023-02-15T08:31:28;93.82;;;35.92;;
62268;SDS011;56517;51.634;5.566;2023-02-15T08:36:29;77.32;;;31.17;;
62268;SDS011;56517;51.634;5.566;2023-02-15T08:41:31;77.72;;;32.45;;
62268;SDS011;56517;51.634;5.566;2023-02-15T08:46:35;89.07;;;35.47;;
62268;SDS011;56517;51.634;5.566;2023-02-15T08:51:36;65.93;;;30.65;;
62268;SDS011;56517;51.634;5.566;2023-02-15T08:56:41;68.32;;;29.80;;
62268;SDS011;56517;51.634;5.566;2023-02-15T09:01:41;74.30;;;30.77;;
62268;SDS011;56517;51.634;5.566;2023-02-15T09:06:42;61.08;;;28.88;;
62268;SDS011;56517;51.634;5.566;2023-02-15T09:11:44;73.90;;;29.33;;
62268;SDS011;56517;51.634;5.566;2023-02-15T09:16:45;64.57;;;27.40;;
62268;SDS011;56517;51.634;5.566;2023-02-15T09:21:46;57.70;;;25.95;;
62268;SDS011;56517;51.634;5.566;2023-02-15T09:26:47;57.20;;;27.45;;
62268;SDS011;56517;51.634;5.566;2023-02-15T09:31:48;55.35;;;28.52;;
62268;SDS011;56517;51.634;5.566;2023-02-15T09:36:49;58.05;;;27.58;;
62268;SDS011;56517;51.634;5.566;2023-02-15T09:42:02;58.58;;;29.98;;
62268;SDS011;56517;51.634;5.566;2023-02-15T09:47:08;53.50;;;26.50;;
62268;SDS011;56517;51.634;5.566;2023-02-15T09:52:14;48.00;;;26.75;;
62268;SDS011;56517;51.634;5.566;2023-02-15T09:57:44;55.00;;;27.77;;
62268;SDS011;56517;51.634;5.566;2023-02-15T10:07:51;50.47;;;27.08;;
62268;SDS011;56517;51.634;5.566;2023-02-15T10:28:19;51.67;;;26.23;;
62268;SDS011;56517;51.634;5.566;2023-02-15T11:09:11;43.28;;;24.15;;
62268;SDS011;56517;51.634;5.566;2023-02-15T11:19:32;45.60;;;25.85;;
62268;SDS011;56517;51.634;5.566;2023-02-15T11:24:36;43.38;;;24.38;;
62268;SDS011;56517;51.634;5.566;2023-02-15T11:34:39;44.92;;;23.48;;
62268;SDS011;56517;51.634;5.566;2023-02-15T11:39:40;42.80;;;23.67;;
62268;SDS011;56517;51.634;5.566;2023-02-15T11:44:42;46.92;;;24.80;;
62268;SDS011;56517;51.634;5.566;2023-02-15T11:49:46;42.05;;;22.35;;
62268;SDS011;56517;51.634;5.566;2023-02-15T11:54:47;40.08;;;21.30;;
62268;SDS011;56517;51.634;5.566;2023-02-15T11:59:54;43.50;;;23.23;;
62268;SDS011;56517;51.634;5.566;2023-02-15T12:04:57;45.45;;;22.05;;
62268;SDS011;56517;51.634;5.566;2023-02-15T12:15:00;48.25;;;20.73;;
62268;SDS011;56517;51.634;5.566;2023-02-15T12:20:02;41.42;;;21.77;;
62268;SDS011;56517;51.634;5.566;2023-02-15T12:25:04;43.05;;;21.10;;
62268;SDS011;56517;51.634;5.566;2023-02-15T12:30:29;40.53;;;22.40;;
62268;SDS011;56517;51.634;5.566;2023-02-15T12:35:32;40.78;;;21.30;;
62268;SDS011;56517;51.634;5.566;2023-02-15T12:40:33;42.13;;;20.23;;
62268;SDS011;56517;51.634;5.566;2023-02-15T12:45:35;45.92;;;25.63;;
62268;SDS011;56517;51.634;5.566;2023-02-15T12:50:36;44.10;;;22.58;;
62268;SDS011;56517;51.634;5.566;2023-02-15T12:55:37;47.05;;;22.98;;
62268;SDS011;56517;51.634;5.566;2023-02-15T13:00:37;42.85;;;23.60;;
62268;SDS011;56517;51.634;5.566;2023-02-15T13:05:38;43.85;;;23.00;;
62268;SDS011;56517;51.634;5.566;2023-02-15T13:10:52;43.78;;;22.50;;
62268;SDS011;56517;51.634;5.566;2023-02-15T13:15:55;43.72;;;21.33;;
62268;SDS011;56517;51.634;5.566;2023-02-15T13:20:56;46.22;;;24.15;;
62268;SDS011;56517;51.634;5.566;2023-02-15T13:25:59;42.42;;;21.80;;
62268;SDS011;56517;51.634;5.566;2023-02-15T13:31:00;47.42;;;24.67;;
62268;SDS011;56517;51.634;5.566;2023-02-15T13:36:09;47.03;;;23.48;;
62268;SDS011;56517;51.634;5.566;2023-02-15T13:41:15;48.47;;;26.35;;
62268;SDS011;56517;51.634;5.566;2023-02-15T13:46:24;46.60;;;23.90;;
62268;SDS011;56517;51.634;5.566;2023-02-15T13:51:37;44.78;;;23.35;;
62268;SDS011;56517;51.634;5.566;2023-02-15T14:01:45;45.80;;;23.48;;
62268;SDS011;56517;51.634;5.566;2023-02-15T14:12:06;50.65;;;25.02;;
62268;SDS011;56517;51.634;5.566;2023-02-15T14:27:59;46.97;;;24.05;;
62268;SDS011;56517;51.634;5.566;2023-02-15T14:32:36;48.22;;;22.58;;
62268;SDS011;56517;51.634;5.566;2023-02-15T14:37:57;47.83;;;23.17;;
62268;SDS011;56517;51.634;5.566;2023-02-15T14:48:23;48.75;;;24.85;;
62268;SDS011;56517;51.634;5.566;2023-02-15T14:53:33;46.47;;;24.15;;
62268;SDS011;56517;51.634;5.566;2023-02-15T14:58:33;47.83;;;23.55;;
62268;SDS011;56517;51.634;5.566;2023-02-15T15:03:34;44.97;;;24.13;;
62268;SDS011;56517;51.634;5.566;2023-02-15T15:08:38;46.55;;;24.40;;
62268;SDS011;56517;51.634;5.566;2023-02-15T15:18:50;44.53;;;22.90;;
62268;SDS011;56517;51.634;5.566;2023-02-15T15:23:51;53.38;;;24.35;;
62268;SDS011;56517;51.634;5.566;2023-02-15T15:34:14;50.28;;;24.67;;
62268;SDS011;56517;51.634;5.566;2023-02-15T15:39:21;51.42;;;23.45;;
62268;SDS011;56517;51.634;5.566;2023-02-15T15:49:46;48.70;;;24.30;;
62268;SDS011;56517;51.634;5.566;2023-02-15T15:54:48;52.72;;;24.58;;
62268;SDS011;56517;51.634;5.566;2023-02-15T15:59:50;53.03;;;26.90;;
62268;SDS011;56517;51.634;5.566;2023-02-15T16:04:50;48.55;;;24.33;;
62268;SDS011;56517;51.634;5.566;2023-02-15T16:10:01;51.70;;;25.73;;
62268;SDS011;56517;51.634;5.566;2023-02-15T16:15:04;55.25;;;23.73;;
62268;SDS011;56517;51.634;5.566;2023-02-15T16:20:20;45.60;;;22.45;;
62268;SDS011;56517;51.634;5.566;2023-02-15T16:25:58;44.77;;;23.37;;
62268;SDS011;56517;51.634;5.566;2023-02-15T16:30:54;46.42;;;24.52;;
62268;SDS011;56517;51.634;5.566;2023-02-15T16:35:59;50.42;;;25.15;;
62268;SDS011;56517;51.634;5.566;2023-02-15T16:40:59;52.25;;;26.77;;
62268;SDS011;56517;51.634;5.566;2023-02-15T16:46:04;53.65;;;26.23;;
62268;SDS011;56517;51.634;5.566;2023-02-15T16:51:05;61.35;;;28.20;;
62268;SDS011;56517;51.634;5.566;2023-02-15T16:56:06;53.45;;;26.60;;
62268;SDS011;56517;51.634;5.566;2023-02-15T17:01:08;58.28;;;28.75;;
62268;SDS011;56517;51.634;5.566;2023-02-15T17:06:20;54.63;;;27.75;;
62268;SDS011;56517;51.634;5.566;2023-02-15T17:11:22;51.10;;;26.35;;
62268;SDS011;56517;51.634;5.566;2023-02-15T17:16:36;52.17;;;25.25;;
62268;SDS011;56517;51.634;5.566;2023-02-15T17:21:41;52.55;;;26.20;;
62268;SDS011;56517;51.634;5.566;2023-02-15T17:26:42;51.63;;;26.92;;
62268;SDS011;56517;51.634;5.566;2023-02-15T17:31:45;58.42;;;29.05;;
62268;SDS011;56517;51.634;5.566;2023-02-15T17:36:57;57.05;;;26.55;;
62268;SDS011;56517;51.634;5.566;2023-02-15T17:41:57;56.22;;;26.63;;
62268;SDS011;56517;51.634;5.566;2023-02-15T17:46:58;52.05;;;26.00;;
62268;SDS011;56517;51.634;5.566;2023-02-15T17:51:59;50.38;;;26.15;;
62268;SDS011;56517;51.634;5.566;2023-02-15T17:56:59;59.83;;;28.05;;
62268;SDS011;56517;51.634;5.566;2023-02-15T18:02:00;43.40;;;25.98;;
62268;SDS011;56517;51.634;5.566;2023-02-15T18:07:01;49.90;;;25.58;;
62268;SDS011;56517;51.634;5.566;2023-02-15T18:12:02;51.65;;;26.50;;
62268;SDS011;56517;51.634;5.566;2023-02-15T18:17:02;60.55;;;27.55;;
62268;SDS011;56517;51.634;5.566;2023-02-15T18:22:08;59.65;;;26.98;;
62268;SDS011;56517;51.634;5.566;2023-02-15T18:27:13;58.72;;;27.33;;
62268;SDS011;56517;51.634;5.566;2023-02-15T18:32:15;59.90;;;28.15;;
62268;SDS011;56517;51.634;5.566;2023-02-15T18:37:17;56.13;;;27.08;;
62268;SDS011;56517;51.634;5.566;2023-02-15T18:47:19;58.72;;;28.77;;
62268;SDS011;56517;51.634;5.566;2023-02-15T18:52:23;52.38;;;27.10;;
62268;SDS011;56517;51.634;5.566;2023-02-15T18:57:24;59.30;;;28.25;;
62268;SDS011;56517;51.634;5.566;2023-02-15T19:02:26;56.22;;;27.67;;
62268;SDS011;56517;51.634;5.566;2023-02-15T19:07:26;61.92;;;29.23;;
62268;SDS011;56517;51.634;5.566;2023-02-15T19:12:27;63.63;;;31.80;;
62268;SDS011;56517;51.634;5.566;2023-02-15T19:17:28;55.88;;;28.10;;
62268;SDS011;56517;51.634;5.566;2023-02-15T19:22:29;61.10;;;28.75;;
62268;SDS011;56517;51.634;5.566;2023-02-15T19:27:31;54.38;;;27.58;;
62268;SDS011;56517;51.634;5.566;2023-02-15T19:32:32;60.83;;;31.40;;
62268;SDS011;56517;51.634;5.566;2023-02-15T19:37:33;63.20;;;32.70;;
62268;SDS011;56517;51.634;5.566;2023-02-15T19:42:36;59.90;;;30.42;;
62268;SDS011;56517;51.634;5.566;2023-02-15T19:47:36;68.75;;;32.70;;
62268;SDS011;56517;51.634;5.566;2023-02-15T19:52:37;64.55;;;33.28;;
62268;SDS011;56517;51.634;5.566;2023-02-15T19:57:37;63.90;;;31.00;;
62268;SDS011;56517;51.634;5.566;2023-02-15T20:02:38;63.03;;;31.90;;
62268;SDS011;56517;51.634;5.566;2023-02-15T20:07:39;68.85;;;35.90;;
62268;SDS011;56517;51.634;5.566;2023-02-15T20:12:39;72.07;;;32.90;;
62268;SDS011;56517;51.634;5.566;2023-02-15T20:17:40;68.47;;;32.65;;
62268;SDS011;56517;51.634;5.566;2023-02-15T20:22:41;59.80;;;30.92;;
62268;SDS011;56517;51.634;5.566;2023-02-15T20:27:42;68.78;;;32.60;;
62268;SDS011;56517;51.634;5.566;2023-02-15T20:32:43;67.60;;;33.00;;
62268;SDS011;56517;51.634;5.566;2023-02-15T20:37:44;67.18;;;33.10;;
62268;SDS011;56517;51.634;5.566;2023-02-15T20:42:45;69.93;;;33.30;;
62268;SDS011;56517;51.634;5.566;2023-02-15T20:47:46;69.75;;;33.58;;
62268;SDS011;56517;51.634;5.566;2023-02-15T20:52:47;74.28;;;33.60;;
62268;SDS011;56517;51.634;5.566;2023-02-15T20:57:48;69.43;;;32.90;;
62268;SDS011;56517;51.634;5.566;2023-02-15T21:02:58;65.13;;;30.98;;
62268;SDS011;56517;51.634;5.566;2023-02-15T21:07:59;63.92;;;32.58;;
62268;SDS011;56517;51.634;5.566;2023-02-15T21:13:00;60.80;;;33.17;;
62268;SDS011;56517;51.634;5.566;2023-02-15T21:18:05;69.38;;;33.20;;
62268;SDS011;56517;51.634;5.566;2023-02-15T21:23:06;70.60;;;34.55;;
62268;SDS011;56517;51.634;5.566;2023-02-15T21:28:10;66.05;;;35.63;;
62268;SDS011;56517;51.634;5.566;2023-02-15T21:33:14;71.97;;;34.75;;
62268;SDS011;56517;51.634;5.566;2023-02-15T21:38:16;73.18;;;37.08;;
62268;SDS011;56517;51.634;5.566;2023-02-15T21:43:20;69.22;;;34.60;;
62268;SDS011;56517;51.634;5.566;2023-02-15T21:48:21;67.15;;;34.85;;
62268;SDS011;56517;51.634;5.566;2023-02-15T21:53:26;71.50;;;35.35;;
62268;SDS011;56517;51.634;5.566;2023-02-15T21:58:28;64.78;;;32.63;;
62268;SDS011;56517;51.634;5.566;2023-02-15T22:03:30;70.78;;;34.13;;
62268;SDS011;56517;51.634;5.566;2023-02-15T22:08:31;63.13;;;32.30;;
62268;SDS011;56517;51.634;5.566;2023-02-15T22:13:31;66.47;;;32.65;;
62268;SDS011;56517;51.634;5.566;2023-02-15T22:18:32;59.58;;;30.75;;
62268;SDS011;56517;51.634;5.566;2023-02-15T22:23:33;63.88;;;30.33;;
62268;SDS011;56517;51.634;5.566;2023-02-15T22:28:35;70.90;;;33.65;;
62268;SDS011;56517;51.634;5.566;2023-02-15T22:33:36;66.95;;;33.85;;
62268;SDS011;56517;51.634;5.566;2023-02-15T22:38:36;66.38;;;35.58;;
62268;SDS011;56517;51.634;5.566;2023-02-15T22:43:40;63.67;;;32.13;;
62268;SDS011;56517;51.634;5.566;2023-02-15T22:48:42;64.40;;;33.47;;
62268;SDS011;56517;51.634;5.566;2023-02-15T22:53:43;60.97;;;32.53;;
62268;SDS011;56517;51.634;5.566;2023-02-15T22:58:43;65.97;;;31.60;;
62268;SDS011;56517;51.634;5.566;2023-02-15T23:03:44;66.30;;;32.95;;
62268;SDS011;56517;51.634;5.566;2023-02-15T23:08:45;63.97;;;31.25;;
62268;SDS011;56517;51.634;5.566;2023-02-15T23:13:46;70.28;;;32.22;;
62268;SDS011;56517;51.634;5.566;2023-02-15T23:18:47;68.85;;;35.78;;
62268;SDS011;56517;51.634;5.566;2023-02-15T23:23:49;64.00;;;32.33;;
62268;SDS011;56517;51.634;5.566;2023-02-15T23:28:50;66.68;;;31.52;;
62268;SDS011;56517;51.634;5.566;2023-02-15T23:33:51;63.25;;;33.15;;
62268;SDS011;56517;51.634;5.566;2023-02-15T23:38:52;68.72;;;33.60;;
62268;SDS011;56517;51.634;5.566;2023-02-15T23:43:54;66.93;;;30.75;;
62268;SDS011;56517;51.634;5.566;2023-02-15T23:48:56;74.55;;;33.38;;
62268;SDS011;56517;51.634;5.566;2023-02-15T23:53:56;63.58;;;30.65;;
62268;SDS011;56517;51.634;5.566;2023-02-15T23:58:57;68.07;;;33.15;;
